createdAt,value
2018-09-22T00:00:01.525Z,64.82
2018-09-22T00:00:32.631Z,65.37
2018-09-22T00:01:03.741Z,65.18
2018-09-22T00:01:34.940Z,64.95
2018-09-22T00:02:06.154Z,65.46
2018-09-22T00:02:37.260Z,64.97
2018-09-22T00:03:08.383Z,65.11
2018-09-22T00:03:39.585Z,65.63
2018-09-22T00:04:10.753Z,65.83
2018-09-22T00:04:41.878Z,65.70
2018-09-22T00:05:13.006Z,65.64
2018-09-22T00:05:44.123Z,65.38
2018-09-22T00:06:15.279Z,65.64
2018-09-22T00:06:46.393Z,65.19
2018-09-22T00:07:17.526Z,65.43
2018-09-22T00:07:48.636Z,65.53
2018-09-22T00:08:19.764Z,65.22
2018-09-22T00:08:50.868Z,65.79
2018-09-22T00:09:22.028Z,65.91
2018-09-22T00:09:53.136Z,65.70
2018-09-22T00:10:24.243Z,65.75
2018-09-22T00:10:55.359Z,66.33
2018-09-22T00:11:26.528Z,66.51
2018-09-22T00:11:57.722Z,66.45
2018-09-22T00:12:28.861Z,66.81
2018-09-22T00:13:00.043Z,66.33
2018-09-22T00:13:31.191Z,66.82
2018-09-22T00:14:02.343Z,66.41
2018-09-22T00:14:33.470Z,66.25
2018-09-22T00:15:04.636Z,66.54
2018-09-22T00:15:35.739Z,66.66
2018-09-22T00:16:06.902Z,66.76
2018-09-22T00:16:38.074Z,66.87
2018-09-22T00:17:09.176Z,66.87
2018-09-22T00:17:40.306Z,66.88
2018-09-22T00:18:11.405Z,66.67
2018-09-22T00:18:42.507Z,67.27
2018-09-22T00:19:13.616Z,67.33
2018-09-22T00:19:44.721Z,66.91
2018-09-22T00:20:15.892Z,67.63
2018-09-22T00:20:46.999Z,67.55
2018-09-22T00:21:18.139Z,67.39
2018-09-22T00:21:49.366Z,67.90
2018-09-22T00:22:20.473Z,67.15
2018-09-22T00:22:51.629Z,67.35
2018-09-22T00:23:22.804Z,67.04
2018-09-22T00:23:53.899Z,67.61
2018-09-22T00:24:25.030Z,67.11
2018-09-22T00:24:56.129Z,67.18
2018-09-22T00:25:27.231Z,67.62
2018-09-22T00:25:58.394Z,67.69
2018-09-22T00:26:29.503Z,67.99
2018-09-22T00:27:00.630Z,67.53
2018-09-22T00:27:31.739Z,67.95
2018-09-22T00:28:02.914Z,67.90
2018-09-22T00:28:34.044Z,68.30
2018-09-22T00:29:05.240Z,68.10
2018-09-22T00:29:36.376Z,68.45
2018-09-22T00:30:07.539Z,68.86
2018-09-22T00:30:38.659Z,68.58
2018-09-22T00:31:09.778Z,68.44
2018-09-22T00:31:40.888Z,67.92
2018-09-22T00:32:11.991Z,68.13
2018-09-22T00:32:43.110Z,67.65
2018-09-22T00:33:14.269Z,67.62
2018-09-22T00:33:45.379Z,68.08
2018-09-22T00:34:16.597Z,67.37
2018-09-22T00:34:47.702Z,67.31
2018-09-22T00:35:18.815Z,67.54
2018-09-22T00:35:49.915Z,67.81
2018-09-22T00:36:21.085Z,67.40
2018-09-22T00:36:52.301Z,67.60
2018-09-22T00:37:23.427Z,67.19
2018-09-22T00:37:54.547Z,67.17
2018-09-22T00:38:25.712Z,67.72
2018-09-22T00:38:56.846Z,67.69
2018-09-22T00:39:28.079Z,67.52
2018-09-22T00:39:59.254Z,68.19
2018-09-22T00:40:30.370Z,68.21
2018-09-22T00:41:01.474Z,67.45
2018-09-22T00:41:32.633Z,67.94
2018-09-22T00:42:03.861Z,67.92
2018-09-22T00:42:35.069Z,67.58
2018-09-22T00:43:06.179Z,68.29
2018-09-22T00:43:37.302Z,68.30
2018-09-22T00:44:08.395Z,68.29
2018-09-22T00:44:39.484Z,67.79
2018-09-22T00:45:10.638Z,68.55
2018-09-22T00:45:41.800Z,68.65
2018-09-22T00:46:12.908Z,68.18
2018-09-22T00:46:44.062Z,68.75
2018-09-22T00:47:15.172Z,68.37
2018-09-22T00:47:46.271Z,69.30
2018-09-22T00:48:17.435Z,69.35
2018-09-22T00:48:48.620Z,69.34
2018-09-22T00:49:19.784Z,69.43
2018-09-22T00:49:51.044Z,68.77
2018-09-22T00:50:22.163Z,69.42
2018-09-22T00:50:53.266Z,68.96
2018-09-22T00:51:24.391Z,69.06
2018-09-22T00:51:55.517Z,68.68
2018-09-22T00:52:26.637Z,68.65
2018-09-22T00:52:57.780Z,68.27
2018-09-22T00:53:28.888Z,68.30
2018-09-22T00:53:59.992Z,68.42
2018-09-22T00:54:31.104Z,68.35
2018-09-22T00:55:02.304Z,68.57
2018-09-22T00:55:33.431Z,67.86
2018-09-22T00:56:04.602Z,68.16
2018-09-22T00:56:35.772Z,68.42
2018-09-22T00:57:06.928Z,67.85
2018-09-22T00:57:38.035Z,67.18
2018-09-22T00:58:09.154Z,67.27
2018-09-22T00:58:40.259Z,67.27
2018-09-22T00:59:11.437Z,67.80
2018-09-22T00:59:42.551Z,67.75
2018-09-22T01:00:13.687Z,66.95
2018-09-22T01:00:44.802Z,66.81
2018-09-22T01:01:16.024Z,66.96
2018-09-22T01:01:47.131Z,67.15
2018-09-22T01:02:18.289Z,66.52
2018-09-22T01:02:49.409Z,67.45
2018-09-22T01:03:20.589Z,67.04
2018-09-22T01:03:51.744Z,67.32
2018-09-22T01:04:22.864Z,66.81
2018-09-22T01:04:53.983Z,67.34
2018-09-22T01:05:25.149Z,66.75
2018-09-22T01:05:56.346Z,67.22
2018-09-22T01:06:27.464Z,66.83
2018-09-22T01:06:58.576Z,66.99
2018-09-22T01:07:29.694Z,67.27
2018-09-22T01:08:00.849Z,66.91
2018-09-22T01:08:31.987Z,66.76
2018-09-22T01:09:03.132Z,67.32
2018-09-22T01:09:34.268Z,67.45
2018-09-22T01:10:05.367Z,66.93
2018-09-22T01:10:36.540Z,67.40
2018-09-22T01:11:07.679Z,67.23
2018-09-22T01:11:38.782Z,67.42
2018-09-22T01:12:09.893Z,67.22
2018-09-22T01:12:41.011Z,67.79
2018-09-22T01:13:12.107Z,67.03
2018-09-22T01:13:43.210Z,66.48
2018-09-22T01:14:14.324Z,66.75
2018-09-22T01:14:45.521Z,66.81
2018-09-22T01:15:16.665Z,66.91
2018-09-22T01:15:47.795Z,66.65
2018-09-22T01:16:18.943Z,66.39
2018-09-22T01:16:50.055Z,66.05
2018-09-22T01:17:21.159Z,66.33
2018-09-22T01:17:52.321Z,66.19
2018-09-22T01:18:23.459Z,66.42
2018-09-22T01:18:54.632Z,65.80
2018-09-22T01:19:25.784Z,65.87
2018-09-22T01:19:56.947Z,65.46
2018-09-22T01:20:28.117Z,65.53
2018-09-22T01:20:59.220Z,65.40
2018-09-22T01:21:30.341Z,65.26
2018-09-22T01:22:01.474Z,65.10
2018-09-22T01:22:32.586Z,64.82
2018-09-22T01:23:03.689Z,64.79
2018-09-22T01:23:34.864Z,64.12
2018-09-22T01:24:05.991Z,64.59
2018-09-22T01:24:37.728Z,64.26
2018-09-22T01:25:08.866Z,64.41
2018-09-22T01:25:40.012Z,64.37
2018-09-22T01:26:11.284Z,64.43
2018-09-22T01:26:42.469Z,64.63
2018-09-22T01:27:13.603Z,64.66
2018-09-22T01:27:44.754Z,64.21
2018-09-22T01:28:15.911Z,65.10
2018-09-22T01:28:47.217Z,65.20
2018-09-22T01:29:18.385Z,65.15
2018-09-22T01:29:49.502Z,64.65
2018-09-22T01:30:20.608Z,64.53
2018-09-22T01:30:51.719Z,64.20
2018-09-22T01:31:22.827Z,64.89
2018-09-22T01:31:53.933Z,64.45
2018-09-22T01:32:25.039Z,64.32
2018-09-22T01:32:56.192Z,65.32
2018-09-22T01:33:27.361Z,64.60
2018-09-22T01:33:58.721Z,65.21
2018-09-22T01:34:29.855Z,65.32
2018-09-22T01:35:01.333Z,65.30
2018-09-22T01:35:32.448Z,64.84
2018-09-22T01:36:03.605Z,65.02
2018-09-22T01:36:34.759Z,65.30
2018-09-22T01:37:05.865Z,65.09
2018-09-22T01:37:37.003Z,65.48
2018-09-22T01:38:08.100Z,65.10
2018-09-22T01:38:39.259Z,65.38
2018-09-22T01:39:10.412Z,66.05
2018-09-22T01:39:41.518Z,65.40
2018-09-22T01:40:12.624Z,65.65
2018-09-22T01:40:43.792Z,65.46
2018-09-22T01:41:14.908Z,64.49
2018-09-22T01:41:46.012Z,64.63
2018-09-22T01:42:17.177Z,64.83
2018-09-22T01:42:48.343Z,65.56
2018-09-22T01:43:19.458Z,64.30
2018-09-22T01:43:50.554Z,64.56
2018-09-22T01:44:21.746Z,64.39
2018-09-22T01:44:52.883Z,64.61
2018-09-22T01:45:23.995Z,64.25
2018-09-22T01:45:55.169Z,64.42
2018-09-22T01:46:26.365Z,64.00
2018-09-22T01:46:57.467Z,63.75
2018-09-22T01:47:28.571Z,63.67
2018-09-22T01:47:59.701Z,64.07
2018-09-22T01:48:30.830Z,64.21
2018-09-22T01:49:01.996Z,64.36
2018-09-22T01:49:33.164Z,64.45
2018-09-22T01:50:04.325Z,64.51
2018-09-22T01:50:35.478Z,65.01
2018-09-22T01:51:06.638Z,64.54
2018-09-22T01:51:37.770Z,64.36
2018-09-22T01:52:08.925Z,64.06
2018-09-22T01:52:40.059Z,63.91
2018-09-22T01:53:11.208Z,63.99
2018-09-22T01:53:42.313Z,64.24
2018-09-22T01:54:13.468Z,63.79
2018-09-22T01:54:44.603Z,64.68
2018-09-22T01:55:15.797Z,64.08
2018-09-22T01:55:46.937Z,63.62
2018-09-22T01:56:18.035Z,64.25
2018-09-22T01:56:49.132Z,63.52
2018-09-22T01:57:20.226Z,63.98
2018-09-22T01:57:51.441Z,63.51
2018-09-22T01:58:22.551Z,63.58
2018-09-22T01:58:53.704Z,64.00
2018-09-22T01:59:24.872Z,63.48
2018-09-22T01:59:55.977Z,63.41
2018-09-22T02:00:27.126Z,64.10
2018-09-22T02:00:58.307Z,64.50
2018-09-22T02:01:29.407Z,64.54
2018-09-22T02:02:00.605Z,64.44
2018-09-22T02:02:31.730Z,64.76
2018-09-22T02:03:02.827Z,64.67
2018-09-22T02:03:33.945Z,65.05
2018-09-22T02:04:05.102Z,65.44
2018-09-22T02:04:36.223Z,65.48
2018-09-22T02:05:07.332Z,65.38
2018-09-22T02:05:38.469Z,64.54
2018-09-22T02:06:09.582Z,64.83
2018-09-22T02:06:40.714Z,65.58
2018-09-22T02:07:11.937Z,65.61
2018-09-22T02:07:43.037Z,65.10
2018-09-22T02:08:14.234Z,65.73
2018-09-22T02:08:45.352Z,64.91
2018-09-22T02:09:16.514Z,65.31
2018-09-22T02:09:47.610Z,65.43
2018-09-22T02:10:18.710Z,64.79
2018-09-22T02:10:49.806Z,65.16
2018-09-22T02:11:20.905Z,65.39
2018-09-22T02:11:52.037Z,65.70
2018-09-22T02:12:23.138Z,65.80
2018-09-22T02:12:54.283Z,65.13
2018-09-22T02:13:25.392Z,65.24
2018-09-22T02:13:56.495Z,65.22
2018-09-22T02:14:27.601Z,65.85
2018-09-22T02:14:58.791Z,65.76
2018-09-22T02:15:29.896Z,66.05
2018-09-22T02:16:01.000Z,66.02
2018-09-22T02:16:32.092Z,66.29
2018-09-22T02:17:03.192Z,65.83
2018-09-22T02:17:34.294Z,65.84
2018-09-22T02:18:05.395Z,65.85
2018-09-22T02:18:36.515Z,66.19
2018-09-22T02:19:07.631Z,66.20
2018-09-22T02:19:38.761Z,65.86
2018-09-22T02:20:09.909Z,66.17
2018-09-22T02:20:41.035Z,66.13
2018-09-22T02:21:12.131Z,65.98
2018-09-22T02:21:43.233Z,66.21
2018-09-22T02:22:14.334Z,66.38
2018-09-22T02:22:45.435Z,66.72
2018-09-22T02:23:16.534Z,66.86
2018-09-22T02:23:47.631Z,66.30
2018-09-22T02:24:18.735Z,66.56
2018-09-22T02:24:49.830Z,66.48
2018-09-22T02:25:20.979Z,66.25
2018-09-22T02:25:52.089Z,66.55
2018-09-22T02:26:23.226Z,66.65
2018-09-22T02:26:54.346Z,66.58
2018-09-22T02:27:25.438Z,66.38
2018-09-22T02:27:56.562Z,67.18
2018-09-22T02:28:27.661Z,66.98
2018-09-22T02:28:58.745Z,67.41
2018-09-22T02:29:29.867Z,66.97
2018-09-22T02:30:00.995Z,67.10
2018-09-22T02:30:32.136Z,67.14
2018-09-22T02:31:03.248Z,67.67
2018-09-22T02:31:34.345Z,67.46
2018-09-22T02:32:05.513Z,68.04
2018-09-22T02:32:36.650Z,67.70
2018-09-22T02:33:07.752Z,68.05
2018-09-22T02:33:38.970Z,68.41
2018-09-22T02:34:10.102Z,68.56
2018-09-22T02:34:41.207Z,68.05
2018-09-22T02:35:12.314Z,68.09
2018-09-22T02:35:43.459Z,68.35
2018-09-22T02:36:14.574Z,68.71
2018-09-22T02:36:45.740Z,68.51
2018-09-22T02:37:16.851Z,68.48
2018-09-22T02:37:47.956Z,68.35
2018-09-22T02:38:19.090Z,68.16
2018-09-22T02:38:50.258Z,68.21
2018-09-22T02:39:21.358Z,68.45
2018-09-22T02:39:52.459Z,68.57
2018-09-22T02:40:23.560Z,68.00
2018-09-22T02:40:54.702Z,68.01
2018-09-22T02:41:25.872Z,68.44
2018-09-22T02:41:56.974Z,68.62
2018-09-22T02:42:28.076Z,68.26
2018-09-22T02:42:59.187Z,68.45
2018-09-22T02:43:30.355Z,68.50
2018-09-22T02:44:01.471Z,67.85
2018-09-22T02:44:32.581Z,68.03
2018-09-22T02:45:03.707Z,67.77
2018-09-22T02:45:34.813Z,68.46
2018-09-22T02:46:05.962Z,67.71
2018-09-22T02:46:37.072Z,68.00
2018-09-22T02:47:08.167Z,68.05
2018-09-22T02:47:39.272Z,67.97
2018-09-22T02:48:10.372Z,67.68
2018-09-22T02:48:41.472Z,67.62
2018-09-22T02:49:12.571Z,67.97
2018-09-22T02:49:43.721Z,67.66
2018-09-22T02:50:14.897Z,67.39
2018-09-22T02:50:46.013Z,67.32
2018-09-22T02:51:17.178Z,67.63
2018-09-22T02:51:48.342Z,67.33
2018-09-22T02:52:19.462Z,66.97
2018-09-22T02:52:50.572Z,67.60
2018-09-22T02:53:21.687Z,66.97
2018-09-22T02:53:52.778Z,67.63
2018-09-22T02:54:23.907Z,66.74
2018-09-22T02:54:55.013Z,67.06
2018-09-22T02:55:26.183Z,66.54
2018-09-22T02:55:57.293Z,67.09
2018-09-22T02:56:28.391Z,66.60
2018-09-22T02:56:59.604Z,66.49
2018-09-22T02:57:30.661Z,66.34
2018-09-22T02:58:01.759Z,66.38
2018-09-22T02:58:32.854Z,66.23
2018-09-22T02:59:03.985Z,66.22
2018-09-22T02:59:35.082Z,65.87
2018-09-22T03:00:06.196Z,66.54
2018-09-22T03:00:37.291Z,66.28
2018-09-22T03:01:08.448Z,66.14
2018-09-22T03:01:39.615Z,66.19
2018-09-22T03:02:10.742Z,66.29
2018-09-22T03:02:41.843Z,66.24
2018-09-22T03:03:12.942Z,65.94
2018-09-22T03:03:44.062Z,65.69
2018-09-22T03:04:15.161Z,66.07
2018-09-22T03:04:46.275Z,66.28
2018-09-22T03:05:17.379Z,66.06
2018-09-22T03:05:48.491Z,65.92
2018-09-22T03:06:19.612Z,65.39
2018-09-22T03:06:50.793Z,66.04
2018-09-22T03:07:21.883Z,65.51
2018-09-22T03:07:53.041Z,65.53
2018-09-22T03:08:24.148Z,65.80
2018-09-22T03:08:55.278Z,66.26
2018-09-22T03:09:26.375Z,65.85
2018-09-22T03:09:57.490Z,65.53
2018-09-22T03:10:28.594Z,65.78
2018-09-22T03:10:59.696Z,65.65
2018-09-22T03:11:30.804Z,65.37
2018-09-22T03:12:01.954Z,65.79
2018-09-22T03:12:33.060Z,65.87
2018-09-22T03:13:04.171Z,65.97
2018-09-22T03:13:35.268Z,65.84
2018-09-22T03:14:06.426Z,65.45
2018-09-22T03:14:37.556Z,66.09
2018-09-22T03:15:09.002Z,66.11
2018-09-22T03:15:39.790Z,65.53
2018-09-22T03:16:10.891Z,65.90
2018-09-22T03:16:42.004Z,66.09
2018-09-22T03:17:13.200Z,65.68
2018-09-22T03:17:44.316Z,65.83
2018-09-22T03:18:15.420Z,65.76
2018-09-22T03:18:46.523Z,65.86
2018-09-22T03:19:17.699Z,65.91
2018-09-22T03:19:48.807Z,66.03
2018-09-22T03:20:19.936Z,66.36
2018-09-22T03:20:51.095Z,66.15
2018-09-22T03:21:22.218Z,66.68
2018-09-22T03:21:53.318Z,66.19
2018-09-22T03:22:24.468Z,66.89
2018-09-22T03:22:55.585Z,66.31
2018-09-22T03:23:26.687Z,66.41
2018-09-22T03:23:57.792Z,66.44
2018-09-22T03:24:28.965Z,66.47
2018-09-22T03:25:00.110Z,66.99
2018-09-22T03:25:31.216Z,66.48
2018-09-22T03:26:02.321Z,66.72
2018-09-22T03:26:33.419Z,66.65
2018-09-22T03:27:04.584Z,66.90
2018-09-22T03:27:35.678Z,66.38
2018-09-22T03:28:06.825Z,66.51
2018-09-22T03:28:37.926Z,66.79
2018-09-22T03:29:09.027Z,66.59
2018-09-22T03:29:40.189Z,66.64
2018-09-22T03:30:11.407Z,65.98
2018-09-22T03:30:42.519Z,66.39
2018-09-22T03:31:13.631Z,66.33
2018-09-22T03:31:44.722Z,65.85
2018-09-22T03:32:15.836Z,65.93
2018-09-22T03:32:46.974Z,66.08
2018-09-22T03:33:18.097Z,65.98
2018-09-22T03:33:49.184Z,66.26
2018-09-22T03:34:20.266Z,66.65
2018-09-22T03:34:51.437Z,66.08
2018-09-22T03:35:22.535Z,66.61
2018-09-22T03:35:53.635Z,66.31
2018-09-22T03:36:24.779Z,66.07
2018-09-22T03:36:55.922Z,66.89
2018-09-22T03:37:27.017Z,66.98
2018-09-22T03:37:58.126Z,66.62
2018-09-22T03:38:29.266Z,66.51
2018-09-22T03:39:00.366Z,66.41
2018-09-22T03:39:31.469Z,66.54
2018-09-22T03:40:02.562Z,66.14
2018-09-22T03:40:33.717Z,65.99
2018-09-22T03:41:04.891Z,66.06
2018-09-22T03:41:36.055Z,66.38
2018-09-22T03:42:07.157Z,66.45
2018-09-22T03:42:38.284Z,66.79
2018-09-22T03:43:09.401Z,66.52
2018-09-22T03:43:40.541Z,66.49
2018-09-22T03:44:11.650Z,65.86
2018-09-22T03:44:42.756Z,65.96
2018-09-22T03:45:13.899Z,66.67
2018-09-22T03:45:45.248Z,66.80
2018-09-22T03:46:16.361Z,66.83
2018-09-22T03:46:47.454Z,66.25
2018-09-22T03:47:18.562Z,66.85
2018-09-22T03:47:49.724Z,66.25
2018-09-22T03:48:20.931Z,66.28
2018-09-22T03:48:52.065Z,66.66
2018-09-22T03:49:23.231Z,66.68
2018-09-22T03:49:54.336Z,66.52
2018-09-22T03:50:25.441Z,66.38
2018-09-22T03:50:56.527Z,66.54
2018-09-22T03:51:27.642Z,66.00
2018-09-22T03:51:58.768Z,66.53
2018-09-22T03:52:29.874Z,66.06
2018-09-22T03:53:01.035Z,65.85
2018-09-22T03:53:32.199Z,65.84
2018-09-22T03:54:03.350Z,65.87
2018-09-22T03:54:34.514Z,65.72
2018-09-22T03:55:05.614Z,65.93
2018-09-22T03:55:36.724Z,65.84
2018-09-22T03:56:07.881Z,66.42
2018-09-22T03:56:39.014Z,66.62
2018-09-22T03:57:10.146Z,66.14
2018-09-22T03:57:41.239Z,66.19
2018-09-22T03:58:12.337Z,66.40
2018-09-22T03:58:43.430Z,67.11
2018-09-22T03:59:14.575Z,66.37
2018-09-22T03:59:45.686Z,66.56
2018-09-22T04:00:16.783Z,66.59
2018-09-22T04:00:47.926Z,67.08
2018-09-22T04:01:19.027Z,66.88
2018-09-22T04:01:50.167Z,66.90
2018-09-22T04:02:21.330Z,66.91
2018-09-22T04:02:52.421Z,67.12
2018-09-22T04:03:23.524Z,67.08
2018-09-22T04:03:54.616Z,67.37
2018-09-22T04:04:25.719Z,66.72
2018-09-22T04:04:56.834Z,66.85
2018-09-22T04:05:27.980Z,67.14
2018-09-22T04:05:59.115Z,67.12
2018-09-22T04:06:30.341Z,67.01
2018-09-22T04:07:01.459Z,66.81
2018-09-22T04:07:32.613Z,66.44
2018-09-22T04:08:03.714Z,67.14
2018-09-22T04:08:34.836Z,66.47
2018-09-22T04:09:05.931Z,66.77
2018-09-22T04:09:37.055Z,66.95
2018-09-22T04:10:08.156Z,66.79
2018-09-22T04:10:39.261Z,67.29
2018-09-22T04:11:10.434Z,67.18
2018-09-22T04:11:41.531Z,66.81
2018-09-22T04:12:12.634Z,66.92
2018-09-22T04:12:43.772Z,67.29
2018-09-22T04:13:14.876Z,66.89
2018-09-22T04:13:46.036Z,66.81
2018-09-22T04:14:17.140Z,66.87
2018-09-22T04:14:48.243Z,67.02
2018-09-22T04:15:19.394Z,66.74
2018-09-22T04:15:50.516Z,67.38
2018-09-22T04:16:21.612Z,66.86
2018-09-22T04:16:52.701Z,67.22
2018-09-22T04:17:23.795Z,66.44
2018-09-22T04:17:54.922Z,66.62
2018-09-22T04:18:26.082Z,66.84
2018-09-22T04:18:57.193Z,66.99
2018-09-22T04:19:28.287Z,67.28
2018-09-22T04:19:59.393Z,67.42
2018-09-22T04:20:30.595Z,67.19
2018-09-22T04:21:01.714Z,67.19
2018-09-22T04:21:32.869Z,67.25
2018-09-22T04:22:03.974Z,67.10
2018-09-22T04:22:35.067Z,66.91
2018-09-22T04:23:06.157Z,66.99
2018-09-22T04:23:37.301Z,66.57
2018-09-22T04:24:08.447Z,66.18
2018-09-22T04:24:39.616Z,65.21
2018-09-22T04:25:10.718Z,65.35
2018-09-22T04:25:41.832Z,65.13
2018-09-22T04:26:13.004Z,64.04
2018-09-22T04:26:44.124Z,63.31
2018-09-22T04:27:15.239Z,62.90
2018-09-22T04:27:46.412Z,62.36
2018-09-22T04:28:17.511Z,61.82
2018-09-22T04:28:48.721Z,61.12
2018-09-22T04:29:19.823Z,60.95
2018-09-22T04:29:50.988Z,60.70
2018-09-22T04:30:22.166Z,61.24
2018-09-22T04:30:53.259Z,61.14
2018-09-22T04:31:24.427Z,61.13
2018-09-22T04:31:55.542Z,61.60
2018-09-22T04:32:26.648Z,61.84
2018-09-22T04:32:57.773Z,62.08
2018-09-22T04:33:28.898Z,62.31
2018-09-22T04:34:00.107Z,62.12
2018-09-22T04:34:31.224Z,61.91
2018-09-22T04:35:02.343Z,62.39
2018-09-22T04:35:33.506Z,62.63
2018-09-22T04:36:04.607Z,61.97
2018-09-22T04:36:35.722Z,62.03
2018-09-22T04:37:06.832Z,62.96
2018-09-22T04:37:37.937Z,62.90
2018-09-22T04:38:09.072Z,63.08
2018-09-22T04:38:40.178Z,62.88
2018-09-22T04:39:11.311Z,62.96
2018-09-22T04:39:42.484Z,62.34
2018-09-22T04:40:13.653Z,61.59
2018-09-22T04:40:44.746Z,61.78
2018-09-22T04:41:15.851Z,61.09
2018-09-22T04:41:46.971Z,60.30
2018-09-22T04:42:18.066Z,58.98
2018-09-22T04:42:49.153Z,58.74
2018-09-22T04:43:20.266Z,57.18
2018-09-22T04:43:51.357Z,57.33
2018-09-22T04:44:22.485Z,56.92
2018-09-22T04:44:53.588Z,56.71
2018-09-22T04:45:24.715Z,56.42
2018-09-22T04:45:55.880Z,56.99
2018-09-22T04:46:27.046Z,57.53
2018-09-22T04:46:58.147Z,56.83
2018-09-22T04:47:29.261Z,57.50
2018-09-22T04:48:00.368Z,57.70
2018-09-22T04:48:31.492Z,57.37
2018-09-22T04:49:02.605Z,57.69
2018-09-22T04:49:33.708Z,57.55
2018-09-22T04:50:04.875Z,57.95
2018-09-22T04:50:36.000Z,58.09
2018-09-22T04:51:07.202Z,59.03
2018-09-22T04:51:38.388Z,59.24
2018-09-22T04:52:09.500Z,59.65
2018-09-22T04:52:40.618Z,59.42
2018-09-22T04:53:11.780Z,59.58
2018-09-22T04:53:42.902Z,59.86
2018-09-22T04:54:14.014Z,60.36
2018-09-22T04:54:45.116Z,60.55
2018-09-22T04:55:16.302Z,61.12
2018-09-22T04:55:47.423Z,61.13
2018-09-22T04:56:18.512Z,61.38
2018-09-22T04:56:49.643Z,61.68
2018-09-22T04:57:20.803Z,61.57
2018-09-22T04:57:51.964Z,61.08
2018-09-22T04:58:23.133Z,61.06
2018-09-22T04:58:54.258Z,60.52
2018-09-22T04:59:25.362Z,60.73
2018-09-22T04:59:56.464Z,60.54
2018-09-22T05:00:27.636Z,59.59
2018-09-22T05:00:58.804Z,59.79
2018-09-22T05:01:29.968Z,59.67
2018-09-22T05:02:01.139Z,59.30
2018-09-22T05:02:32.280Z,59.50
2018-09-22T05:03:03.401Z,59.79
2018-09-22T05:03:34.523Z,59.31
2018-09-22T05:04:05.701Z,60.12
2018-09-22T05:04:36.802Z,59.54
2018-09-22T05:05:07.971Z,60.06
2018-09-22T05:05:39.107Z,59.86
2018-09-22T05:06:10.218Z,59.73
2018-09-22T05:06:41.386Z,59.15
2018-09-22T05:07:12.528Z,59.49
2018-09-22T05:07:43.654Z,60.00
2018-09-22T05:08:14.761Z,60.13
2018-09-22T05:08:45.891Z,59.93
2018-09-22T05:09:17.205Z,60.31
2018-09-22T05:09:48.318Z,59.48
2018-09-22T05:10:19.428Z,59.87
2018-09-22T05:10:50.626Z,60.52
2018-09-22T05:11:21.797Z,60.30
2018-09-22T05:11:53.004Z,60.24
2018-09-22T05:12:25.265Z,59.87
2018-09-22T05:12:56.436Z,59.42
2018-09-22T05:13:27.707Z,59.98
2018-09-22T05:13:58.831Z,59.83
2018-09-22T05:14:29.941Z,60.21
2018-09-22T05:15:01.047Z,60.02
2018-09-22T05:15:32.209Z,59.67
2018-09-22T05:16:03.320Z,59.81
2018-09-22T05:16:34.421Z,60.52
2018-09-22T05:17:05.598Z,60.80
2018-09-22T05:17:36.690Z,61.16
2018-09-22T05:18:07.891Z,61.03
2018-09-22T05:18:38.992Z,61.14
2018-09-22T05:19:10.103Z,60.81
2018-09-22T05:19:41.211Z,61.40
2018-09-22T05:20:12.353Z,61.15
2018-09-22T05:20:43.454Z,61.29
2018-09-22T05:21:14.558Z,61.37
2018-09-22T05:21:45.655Z,60.81
2018-09-22T05:22:16.768Z,60.85
2018-09-22T05:22:47.877Z,61.01
2018-09-22T05:23:19.053Z,60.59
2018-09-22T05:23:50.184Z,60.43
2018-09-22T05:24:21.337Z,60.58
2018-09-22T05:24:52.553Z,60.79
2018-09-22T05:25:23.625Z,60.87
2018-09-22T05:25:54.732Z,60.61
2018-09-22T05:26:25.828Z,60.78
2018-09-22T05:26:57.012Z,60.92
2018-09-22T05:27:28.161Z,61.29
2018-09-22T05:27:59.277Z,60.50
2018-09-22T05:28:30.397Z,60.60
2018-09-22T05:29:01.567Z,60.99
2018-09-22T05:29:32.673Z,61.75
2018-09-22T05:30:03.791Z,61.28
2018-09-22T05:30:34.904Z,60.48
2018-09-22T05:31:06.023Z,61.03
2018-09-22T05:31:37.131Z,60.40
2018-09-22T05:32:08.240Z,61.13
2018-09-22T05:32:39.483Z,60.94
2018-09-22T05:33:10.577Z,61.13
2018-09-22T05:33:41.694Z,61.44
2018-09-22T05:34:12.816Z,61.70
2018-09-22T05:34:43.942Z,60.48
2018-09-22T05:35:15.040Z,60.96
2018-09-22T05:35:46.138Z,60.36
2018-09-22T05:36:17.236Z,60.03
2018-09-22T05:36:48.355Z,60.17
2018-09-22T05:37:19.468Z,59.97
2018-09-22T05:37:50.624Z,60.11
2018-09-22T05:38:21.742Z,59.23
2018-09-22T05:38:53.839Z,58.95
2018-09-22T05:39:25.023Z,58.99
2018-09-22T05:39:56.218Z,59.09
2018-09-22T05:40:27.309Z,59.52
2018-09-22T05:40:58.418Z,59.59
2018-09-22T05:41:29.568Z,58.69
2018-09-22T05:42:00.717Z,59.31
2018-09-22T05:42:31.890Z,58.73
2018-09-22T05:43:03.042Z,58.74
2018-09-22T05:43:34.289Z,59.08
2018-09-22T05:44:05.402Z,58.84
2018-09-22T05:44:36.565Z,59.07
2018-09-22T05:45:07.701Z,59.43
2018-09-22T05:45:38.892Z,59.81
2018-09-22T05:46:10.067Z,60.13
2018-09-22T05:46:41.236Z,59.86
2018-09-22T05:47:12.386Z,59.68
2018-09-22T05:47:43.569Z,59.97
2018-09-22T05:48:14.791Z,59.69
2018-09-22T05:48:45.946Z,60.26
2018-09-22T05:49:17.069Z,60.42
2018-09-22T05:49:48.176Z,60.81
2018-09-22T05:50:19.384Z,60.03
2018-09-22T05:50:50.551Z,60.28
2018-09-22T05:51:21.687Z,60.12
2018-09-22T05:51:52.822Z,59.92
2018-09-22T05:52:23.992Z,60.42
2018-09-22T05:52:55.110Z,59.61
2018-09-22T05:53:26.282Z,59.79
2018-09-22T05:53:57.395Z,59.95
2018-09-22T05:54:28.491Z,60.15
2018-09-22T05:54:59.606Z,60.45
2018-09-22T05:55:30.735Z,60.28
2018-09-22T05:56:01.843Z,60.38
2018-09-22T05:56:33.010Z,59.80
2018-09-22T05:57:04.114Z,59.83
2018-09-22T05:57:35.222Z,60.07
2018-09-22T05:58:06.404Z,60.07
2018-09-22T05:58:37.513Z,59.86
2018-09-22T05:59:08.821Z,59.87
2018-09-22T05:59:40.016Z,60.01
2018-09-22T06:00:11.247Z,59.78
2018-09-22T06:00:42.346Z,59.12
2018-09-22T06:01:13.495Z,59.00
2018-09-22T06:01:44.602Z,59.45
2018-09-22T06:02:15.699Z,59.47
2018-09-22T06:02:46.806Z,59.20
2018-09-22T06:03:18.081Z,59.19
2018-09-22T06:03:49.393Z,58.63
2018-09-22T06:04:20.462Z,58.87
2018-09-22T06:04:51.574Z,58.62
2018-09-22T06:05:22.739Z,58.04
2018-09-22T06:05:53.838Z,57.50
2018-09-22T06:06:25.027Z,58.00
2018-09-22T06:06:56.145Z,57.58
2018-09-22T06:07:27.257Z,57.20
2018-09-22T06:07:58.419Z,57.10
2018-09-22T06:08:29.542Z,57.57
2018-09-22T06:09:00.695Z,56.59
2018-09-22T06:09:31.833Z,56.83
2018-09-22T06:10:03.004Z,57.47
2018-09-22T06:10:34.146Z,56.69
2018-09-22T06:11:05.254Z,56.93
2018-09-22T06:11:36.379Z,57.27
2018-09-22T06:12:07.519Z,57.28
2018-09-22T06:12:38.645Z,56.74
2018-09-22T06:13:09.962Z,56.60
2018-09-22T06:13:41.107Z,57.39
2018-09-22T06:14:12.514Z,56.84
2018-09-22T06:14:43.701Z,56.89
2018-09-22T06:15:14.873Z,57.58
2018-09-22T06:15:46.001Z,57.44
2018-09-22T06:16:17.201Z,57.13
2018-09-22T06:16:48.367Z,57.07
2018-09-22T06:17:19.539Z,57.12
2018-09-22T06:17:50.661Z,56.97
2018-09-22T06:18:21.766Z,57.05
2018-09-22T06:18:52.931Z,57.10
2018-09-22T06:19:24.046Z,56.42
2018-09-22T06:19:55.154Z,56.19
2018-09-22T06:20:26.303Z,56.53
2018-09-22T06:20:57.422Z,56.47
2018-09-22T06:21:28.584Z,55.73
2018-09-22T06:21:59.764Z,56.17
2018-09-22T06:22:30.864Z,55.36
2018-09-22T06:23:02.257Z,55.29
2018-09-22T06:23:33.469Z,54.58
2018-09-22T06:24:04.509Z,54.65
2018-09-22T06:24:35.657Z,55.13
2018-09-22T06:25:06.766Z,55.01
2018-09-22T06:25:38.021Z,54.46
2018-09-22T06:26:09.155Z,54.52
2018-09-22T06:26:40.319Z,54.39
2018-09-22T06:27:11.503Z,54.43
2018-09-22T06:27:42.647Z,54.02
2018-09-22T06:28:13.755Z,53.41
2018-09-22T06:28:44.987Z,54.24
2018-09-22T06:29:16.131Z,54.50
2018-09-22T06:29:47.249Z,54.32
2018-09-22T06:30:18.409Z,54.49
2018-09-22T06:30:49.523Z,54.49
2018-09-22T06:31:20.636Z,53.80
2018-09-22T06:31:51.756Z,54.52
2018-09-22T06:32:22.894Z,53.79
2018-09-22T06:32:53.999Z,54.23
2018-09-22T06:33:25.103Z,53.60
2018-09-22T06:33:56.393Z,54.01
2018-09-22T06:34:27.523Z,53.89
2018-09-22T06:34:58.663Z,53.90
2018-09-22T06:35:29.851Z,53.32
2018-09-22T06:36:01.021Z,53.72
2018-09-22T06:36:32.130Z,53.78
2018-09-22T06:37:03.313Z,53.88
2018-09-22T06:37:34.544Z,53.89
2018-09-22T06:38:05.620Z,53.56
2018-09-22T06:38:36.727Z,53.82
2018-09-22T06:39:07.860Z,52.75
2018-09-22T06:39:38.958Z,52.42
2018-09-22T06:40:10.075Z,52.30
2018-09-22T06:40:41.209Z,52.83